sensor_id;sensor_type;location;lat;lon;timestamp;P1;durP1;ratioP1;P2;durP2;ratioP2
21438;SDS011;10880;50.302;18.736;2022-09-12T00:01:12;2.00;;;1.80;;
21438;SDS011;10880;50.302;18.736;2022-09-12T00:03:53;2.10;;;1.90;;
21438;SDS011;10880;50.302;18.736;2022-09-12T00:06:25;2.00;;;1.90;;
21438;SDS011;10880;50.302;18.736;2022-09-12T00:08:58;1.80;;;1.70;;
21438;SDS011;10880;50.302;18.736;2022-09-12T00:11:27;2.10;;;2.00;;
21438;SDS011;10880;50.302;18.736;2022-09-12T00:13:57;2.20;;;2.00;;
21438;SDS011;10880;50.302;18.736;2022-09-12T00:16:27;2.50;;;2.33;;
21438;SDS011;10880;50.302;18.736;2022-09-12T00:18:58;4.07;;;2.90;;
21438;SDS011;10880;50.302;18.736;2022-09-12T00:21:27;3.40;;;3.10;;
21438;SDS011;10880;50.302;18.736;2022-09-12T00:23:54;2.87;;;2.67;;
21438;SDS011;10880;50.302;18.736;2022-09-12T00:26:21;2.80;;;2.50;;
21438;SDS011;10880;50.302;18.736;2022-09-12T00:28:51;1.97;;;1.87;;
21438;SDS011;10880;50.302;18.736;2022-09-12T00:31:19;2.07;;;1.90;;
21438;SDS011;10880;50.302;18.736;2022-09-12T00:33:52;2.10;;;2.00;;
21438;SDS011;10880;50.302;18.736;2022-09-12T00:36:21;1.90;;;1.80;;
21438;SDS011;10880;50.302;18.736;2022-09-12T00:38:49;2.00;;;1.90;;
21438;SDS011;10880;50.302;18.736;2022-09-12T00:41:20;2.20;;;1.87;;
21438;SDS011;10880;50.302;18.736;2022-09-12T00:44:00;1.70;;;1.60;;
21438;SDS011;10880;50.302;18.736;2022-09-12T00:46:47;1.63;;;1.53;;
21438;SDS011;10880;50.302;18.736;2022-09-12T00:49:30;1.80;;;1.70;;
21438;SDS011;10880;50.302;18.736;2022-09-12T00:55:21;2.07;;;1.87;;
21438;SDS011;10880;50.302;18.736;2022-09-12T00:58:02;1.80;;;1.70;;
21438;SDS011;10880;50.302;18.736;2022-09-12T01:00:39;1.90;;;1.80;;
21438;SDS011;10880;50.302;18.736;2022-09-12T01:03:08;1.60;;;1.50;;
21438;SDS011;10880;50.302;18.736;2022-09-12T01:05:40;1.73;;;1.63;;
21438;SDS011;10880;50.302;18.736;2022-09-12T01:08:12;2.03;;;1.90;;
21438;SDS011;10880;50.302;18.736;2022-09-12T01:10:39;1.90;;;1.80;;
21438;SDS011;10880;50.302;18.736;2022-09-12T01:13:07;1.63;;;1.53;;
21438;SDS011;10880;50.302;18.736;2022-09-12T01:15:36;2.90;;;2.00;;
21438;SDS011;10880;50.302;18.736;2022-09-12T01:18:18;1.80;;;1.70;;
21438;SDS011;10880;50.302;18.736;2022-09-12T01:27:18;1.80;;;1.70;;
21438;SDS011;10880;50.302;18.736;2022-09-12T01:43:49;1.90;;;1.80;;
21438;SDS011;10880;50.302;18.736;2022-09-12T01:51:52;1.77;;;1.67;;
21438;SDS011;10880;50.302;18.736;2022-09-12T01:54:28;1.90;;;1.80;;
21438;SDS011;10880;50.302;18.736;2022-09-12T01:57:19;1.93;;;1.83;;
21438;SDS011;10880;50.302;18.736;2022-09-12T01:59:56;1.90;;;1.80;;
21438;SDS011;10880;50.302;18.736;2022-09-12T02:05:15;1.80;;;1.70;;
21438;SDS011;10880;50.302;18.736;2022-09-12T02:08:09;2.00;;;1.90;;
21438;SDS011;10880;50.302;18.736;2022-09-12T02:10:54;1.93;;;1.83;;
21438;SDS011;10880;50.302;18.736;2022-09-12T02:14:09;1.87;;;1.77;;
21438;SDS011;10880;50.302;18.736;2022-09-12T02:16:35;2.13;;;1.97;;
21438;SDS011;10880;50.302;18.736;2022-09-12T02:19:15;1.73;;;1.63;;
21438;SDS011;10880;50.302;18.736;2022-09-12T02:22:04;1.90;;;1.80;;
21438;SDS011;10880;50.302;18.736;2022-09-12T02:24:38;1.70;;;1.60;;
21438;SDS011;10880;50.302;18.736;2022-09-12T02:27:15;2.00;;;1.90;;
21438;SDS011;10880;50.302;18.736;2022-09-12T02:29:46;1.70;;;1.60;;
21438;SDS011;10880;50.302;18.736;2022-09-12T02:32:16;1.77;;;1.67;;
21438;SDS011;10880;50.302;18.736;2022-09-12T02:38:10;2.10;;;1.90;;
21438;SDS011;10880;50.302;18.736;2022-09-12T02:40:44;1.90;;;1.80;;
21438;SDS011;10880;50.302;18.736;2022-09-12T02:43:10;1.90;;;1.80;;
21438;SDS011;10880;50.302;18.736;2022-09-12T02:45:37;1.77;;;1.67;;
21438;SDS011;10880;50.302;18.736;2022-09-12T02:48:05;1.97;;;1.87;;
21438;SDS011;10880;50.302;18.736;2022-09-12T02:50:48;1.70;;;1.60;;
21438;SDS011;10880;50.302;18.736;2022-09-12T02:53:16;1.80;;;1.70;;
21438;SDS011;10880;50.302;18.736;2022-09-12T02:55:44;1.80;;;1.70;;
21438;SDS011;10880;50.302;18.736;2022-09-12T02:58:12;1.90;;;1.80;;
21438;SDS011;10880;50.302;18.736;2022-09-12T03:00:51;2.10;;;1.90;;
21438;SDS011;10880;50.302;18.736;2022-09-12T03:09:11;1.97;;;1.87;;
21438;SDS011;10880;50.302;18.736;2022-09-12T03:18:30;1.90;;;1.80;;
21438;SDS011;10880;50.302;18.736;2022-09-12T03:21:03;1.83;;;1.73;;
21438;SDS011;10880;50.302;18.736;2022-09-12T03:23:54;1.70;;;1.60;;
21438;SDS011;10880;50.302;18.736;2022-09-12T03:29:10;2.20;;;2.00;;
21438;SDS011;10880;50.302;18.736;2022-09-12T03:31:50;1.90;;;1.80;;
21438;SDS011;10880;50.302;18.736;2022-09-12T03:34:20;1.93;;;1.83;;
21438;SDS011;10880;50.302;18.736;2022-09-12T03:36:48;1.80;;;1.70;;
21438;SDS011;10880;50.302;18.736;2022-09-12T03:39:16;2.07;;;1.90;;
21438;SDS011;10880;50.302;18.736;2022-09-12T03:41:48;2.17;;;2.00;;
21438;SDS011;10880;50.302;18.736;2022-09-12T03:44:17;2.00;;;1.90;;
21438;SDS011;10880;50.302;18.736;2022-09-12T03:46:44;1.97;;;1.80;;
21438;SDS011;10880;50.302;18.736;2022-09-12T03:49:11;2.00;;;1.80;;
21438;SDS011;10880;50.302;18.736;2022-09-12T03:51:38;1.87;;;1.77;;
21438;SDS011;10880;50.302;18.736;2022-09-12T03:54:09;3.80;;;1.90;;
21438;SDS011;10880;50.302;18.736;2022-09-12T03:56:37;2.00;;;1.90;;
21438;SDS011;10880;50.302;18.736;2022-09-12T03:59:05;1.50;;;1.40;;
21438;SDS011;10880;50.302;18.736;2022-09-12T04:01:31;1.77;;;1.67;;
21438;SDS011;10880;50.302;18.736;2022-09-12T04:03:58;1.60;;;1.50;;
21438;SDS011;10880;50.302;18.736;2022-09-12T04:06:24;1.87;;;1.77;;
21438;SDS011;10880;50.302;18.736;2022-09-12T04:08:52;1.90;;;1.80;;
21438;SDS011;10880;50.302;18.736;2022-09-12T04:11:19;2.00;;;1.90;;
21438;SDS011;10880;50.302;18.736;2022-09-12T04:13:49;1.70;;;1.60;;
21438;SDS011;10880;50.302;18.736;2022-09-12T04:16:16;1.80;;;1.70;;
21438;SDS011;10880;50.302;18.736;2022-09-12T04:18:43;1.73;;;1.63;;
21438;SDS011;10880;50.302;18.736;2022-09-12T04:21:16;1.93;;;1.83;;
21438;SDS011;10880;50.302;18.736;2022-09-12T04:23:45;2.00;;;1.90;;
21438;SDS011;10880;50.302;18.736;2022-09-12T04:26:11;1.73;;;1.63;;
21438;SDS011;10880;50.302;18.736;2022-09-12T04:28:39;1.90;;;1.80;;
21438;SDS011;10880;50.302;18.736;2022-09-12T04:31:07;1.90;;;1.80;;
21438;SDS011;10880;50.302;18.736;2022-09-12T04:33:46;1.90;;;1.80;;
21438;SDS011;10880;50.302;18.736;2022-09-12T04:36:13;2.00;;;1.90;;
21438;SDS011;10880;50.302;18.736;2022-09-12T04:38:43;1.97;;;1.87;;
21438;SDS011;10880;50.302;18.736;2022-09-12T04:41:18;2.60;;;2.40;;
21438;SDS011;10880;50.302;18.736;2022-09-12T04:43:46;1.90;;;1.80;;
21438;SDS011;10880;50.302;18.736;2022-09-12T04:46:22;2.00;;;1.90;;
21438;SDS011;10880;50.302;18.736;2022-09-12T04:48:48;2.00;;;1.90;;
21438;SDS011;10880;50.302;18.736;2022-09-12T04:51:17;2.07;;;1.97;;
21438;SDS011;10880;50.302;18.736;2022-09-12T04:53:53;2.10;;;2.00;;
21438;SDS011;10880;50.302;18.736;2022-09-12T04:56:22;1.93;;;1.83;;
21438;SDS011;10880;50.302;18.736;2022-09-12T04:58:50;1.80;;;1.70;;
21438;SDS011;10880;50.302;18.736;2022-09-12T05:01:18;1.90;;;1.80;;
21438;SDS011;10880;50.302;18.736;2022-09-12T05:03:46;1.80;;;1.70;;
21438;SDS011;10880;50.302;18.736;2022-09-12T05:06:16;1.90;;;1.80;;
21438;SDS011;10880;50.302;18.736;2022-09-12T05:08:52;1.87;;;1.77;;
21438;SDS011;10880;50.302;18.736;2022-09-12T05:11:38;1.80;;;1.70;;
21438;SDS011;10880;50.302;18.736;2022-09-12T05:14:08;1.80;;;1.70;;
21438;SDS011;10880;50.302;18.736;2022-09-12T05:16:35;1.97;;;1.87;;
21438;SDS011;10880;50.302;18.736;2022-09-12T05:19:02;1.97;;;1.80;;
21438;SDS011;10880;50.302;18.736;2022-09-12T05:21:29;2.27;;;1.80;;
21438;SDS011;10880;50.302;18.736;2022-09-12T05:23:59;1.90;;;1.80;;
21438;SDS011;10880;50.302;18.736;2022-09-12T05:26:26;2.30;;;2.13;;
21438;SDS011;10880;50.302;18.736;2022-09-12T05:28:53;1.80;;;1.70;;
21438;SDS011;10880;50.302;18.736;2022-09-12T05:31:21;2.27;;;1.80;;
21438;SDS011;10880;50.302;18.736;2022-09-12T05:33:52;1.83;;;1.73;;
21438;SDS011;10880;50.302;18.736;2022-09-12T05:36:22;1.80;;;1.70;;
21438;SDS011;10880;50.302;18.736;2022-09-12T05:38:50;1.90;;;1.80;;
21438;SDS011;10880;50.302;18.736;2022-09-12T05:41:19;3.00;;;2.60;;
21438;SDS011;10880;50.302;18.736;2022-09-12T05:46:26;1.97;;;1.87;;
21438;SDS011;10880;50.302;18.736;2022-09-12T05:49:01;1.70;;;1.60;;
21438;SDS011;10880;50.302;18.736;2022-09-12T05:51:32;3.00;;;1.80;;
21438;SDS011;10880;50.302;18.736;2022-09-12T05:54:04;1.80;;;1.70;;
21438;SDS011;10880;50.302;18.736;2022-09-12T05:56:35;1.80;;;1.70;;
21438;SDS011;10880;50.302;18.736;2022-09-12T05:59:09;1.80;;;1.70;;
21438;SDS011;10880;50.302;18.736;2022-09-12T06:01:42;1.80;;;1.70;;
21438;SDS011;10880;50.302;18.736;2022-09-12T06:04:09;1.90;;;1.80;;
21438;SDS011;10880;50.302;18.736;2022-09-12T06:06:40;1.90;;;1.80;;
21438;SDS011;10880;50.302;18.736;2022-09-12T06:09:12;1.87;;;1.77;;
21438;SDS011;10880;50.302;18.736;2022-09-12T06:11:42;1.80;;;1.70;;
21438;SDS011;10880;50.302;18.736;2022-09-12T06:14:11;1.90;;;1.80;;
21438;SDS011;10880;50.302;18.736;2022-09-12T06:16:43;1.77;;;1.67;;
21438;SDS011;10880;50.302;18.736;2022-09-12T06:19:13;1.60;;;1.50;;
21438;SDS011;10880;50.302;18.736;2022-09-12T06:21:52;1.83;;;1.60;;
21438;SDS011;10880;50.302;18.736;2022-09-12T06:24:20;1.60;;;1.50;;
21438;SDS011;10880;50.302;18.736;2022-09-12T06:26:47;1.80;;;1.70;;
21438;SDS011;10880;50.302;18.736;2022-09-12T06:29:17;1.80;;;1.70;;
21438;SDS011;10880;50.302;18.736;2022-09-12T06:31:44;1.80;;;1.70;;
21438;SDS011;10880;50.302;18.736;2022-09-12T06:34:11;1.73;;;1.63;;
21438;SDS011;10880;50.302;18.736;2022-09-12T06:36:41;1.80;;;1.70;;
21438;SDS011;10880;50.302;18.736;2022-09-12T06:39:13;1.70;;;1.60;;
21438;SDS011;10880;50.302;18.736;2022-09-12T06:41:41;1.70;;;1.60;;
21438;SDS011;10880;50.302;18.736;2022-09-12T06:44:13;1.80;;;1.70;;
21438;SDS011;10880;50.302;18.736;2022-09-12T06:46:42;1.80;;;1.70;;
21438;SDS011;10880;50.302;18.736;2022-09-12T06:49:14;1.90;;;1.80;;
21438;SDS011;10880;50.302;18.736;2022-09-12T06:51:42;1.70;;;1.60;;
21438;SDS011;10880;50.302;18.736;2022-09-12T06:54:12;1.70;;;1.60;;
21438;SDS011;10880;50.302;18.736;2022-09-12T06:56:40;1.70;;;1.60;;
21438;SDS011;10880;50.302;18.736;2022-09-12T06:59:10;1.60;;;1.50;;
21438;SDS011;10880;50.302;18.736;2022-09-12T07:01:37;1.83;;;1.73;;
21438;SDS011;10880;50.302;18.736;2022-09-12T07:04:05;1.70;;;1.60;;
21438;SDS011;10880;50.302;18.736;2022-09-12T07:06:35;1.60;;;1.50;;
21438;SDS011;10880;50.302;18.736;2022-09-12T07:09:05;1.60;;;1.50;;
21438;SDS011;10880;50.302;18.736;2022-09-12T07:11:36;1.50;;;1.40;;
21438;SDS011;10880;50.302;18.736;2022-09-12T07:14:05;1.53;;;1.43;;
21438;SDS011;10880;50.302;18.736;2022-09-12T07:16:34;1.77;;;1.67;;
21438;SDS011;10880;50.302;18.736;2022-09-12T07:19:02;1.70;;;1.60;;
21438;SDS011;10880;50.302;18.736;2022-09-12T07:21:31;1.70;;;1.60;;
21438;SDS011;10880;50.302;18.736;2022-09-12T07:24:01;1.60;;;1.50;;
21438;SDS011;10880;50.302;18.736;2022-09-12T07:26:28;1.60;;;1.50;;
21438;SDS011;10880;50.302;18.736;2022-09-12T07:29:02;1.70;;;1.60;;
21438;SDS011;10880;50.302;18.736;2022-09-12T07:31:30;1.60;;;1.50;;
21438;SDS011;10880;50.302;18.736;2022-09-12T07:33:57;1.47;;;1.37;;
21438;SDS011;10880;50.302;18.736;2022-09-12T07:36:23;1.67;;;1.57;;
21438;SDS011;10880;50.302;18.736;2022-09-12T07:38:54;1.70;;;1.60;;
21438;SDS011;10880;50.302;18.736;2022-09-12T07:41:24;1.70;;;1.60;;
21438;SDS011;10880;50.302;18.736;2022-09-12T07:43:56;1.50;;;1.40;;
21438;SDS011;10880;50.302;18.736;2022-09-12T07:46:26;1.50;;;1.40;;
21438;SDS011;10880;50.302;18.736;2022-09-12T07:48:59;1.67;;;1.57;;
21438;SDS011;10880;50.302;18.736;2022-09-12T07:51:29;1.30;;;1.30;;
21438;SDS011;10880;50.302;18.736;2022-09-12T07:53:59;1.60;;;1.50;;
21438;SDS011;10880;50.302;18.736;2022-09-12T07:56:25;1.80;;;1.70;;
21438;SDS011;10880;50.302;18.736;2022-09-12T07:58:53;1.67;;;1.57;;
21438;SDS011;10880;50.302;18.736;2022-09-12T08:01:21;1.70;;;1.60;;
21438;SDS011;10880;50.302;18.736;2022-09-12T08:03:52;1.60;;;1.50;;
21438;SDS011;10880;50.302;18.736;2022-09-12T08:06:21;1.80;;;1.70;;
21438;SDS011;10880;50.302;18.736;2022-09-12T08:08:52;1.43;;;1.30;;
21438;SDS011;10880;50.302;18.736;2022-09-12T08:11:20;1.40;;;1.40;;
21438;SDS011;10880;50.302;18.736;2022-09-12T08:13:49;1.40;;;1.40;;
21438;SDS011;10880;50.302;18.736;2022-09-12T08:16:18;1.50;;;1.40;;
21438;SDS011;10880;50.302;18.736;2022-09-12T08:18:48;1.63;;;1.30;;
21438;SDS011;10880;50.302;18.736;2022-09-12T08:21:17;1.50;;;1.40;;
21438;SDS011;10880;50.302;18.736;2022-09-12T08:23:56;1.60;;;1.50;;
21438;SDS011;10880;50.302;18.736;2022-09-12T08:26:26;1.60;;;1.50;;
21438;SDS011;10880;50.302;18.736;2022-09-12T08:28:53;1.60;;;1.50;;
21438;SDS011;10880;50.302;18.736;2022-09-12T08:31:22;1.60;;;1.50;;
21438;SDS011;10880;50.302;18.736;2022-09-12T08:33:50;1.50;;;1.40;;
21438;SDS011;10880;50.302;18.736;2022-09-12T08:36:20;1.50;;;1.40;;
21438;SDS011;10880;50.302;18.736;2022-09-12T08:38:52;1.40;;;1.30;;
21438;SDS011;10880;50.302;18.736;2022-09-12T08:41:35;1.23;;;1.20;;
21438;SDS011;10880;50.302;18.736;2022-09-12T08:52:46;1.63;;;1.53;;
21438;SDS011;10880;50.302;18.736;2022-09-12T08:55:35;1.50;;;1.40;;
21438;SDS011;10880;50.302;18.736;2022-09-12T08:58:15;1.30;;;1.30;;
21438;SDS011;10880;50.302;18.736;2022-09-12T09:10:33;1.47;;;1.40;;
21438;SDS011;10880;50.302;18.736;2022-09-12T09:13:10;1.60;;;1.50;;
21438;SDS011;10880;50.302;18.736;2022-09-12T09:16:48;1.47;;;1.37;;
21438;SDS011;10880;50.302;18.736;2022-09-12T09:18:53;1.53;;;1.43;;
21438;SDS011;10880;50.302;18.736;2022-09-12T09:21:34;1.40;;;1.30;;
21438;SDS011;10880;50.302;18.736;2022-09-12T09:24:14;1.30;;;1.20;;
21438;SDS011;10880;50.302;18.736;2022-09-12T09:29:17;1.40;;;1.40;;
21438;SDS011;10880;50.302;18.736;2022-09-12T09:31:47;1.20;;;1.20;;
21438;SDS011;10880;50.302;18.736;2022-09-12T09:34:19;1.60;;;1.50;;
21438;SDS011;10880;50.302;18.736;2022-09-12T09:36:56;1.30;;;1.30;;
21438;SDS011;10880;50.302;18.736;2022-09-12T09:44:49;1.50;;;1.40;;
21438;SDS011;10880;50.302;18.736;2022-09-12T09:47:19;1.40;;;1.30;;
21438;SDS011;10880;50.302;18.736;2022-09-12T09:49:47;1.30;;;1.30;;
21438;SDS011;10880;50.302;18.736;2022-09-12T09:52:15;1.23;;;1.23;;
21438;SDS011;10880;50.302;18.736;2022-09-12T09:54:48;1.27;;;1.27;;
21438;SDS011;10880;50.302;18.736;2022-09-12T10:05:27;1.50;;;1.40;;
21438;SDS011;10880;50.302;18.736;2022-09-12T10:07:56;1.40;;;1.30;;
21438;SDS011;10880;50.302;18.736;2022-09-12T10:10:23;1.20;;;1.20;;
21438;SDS011;10880;50.302;18.736;2022-09-12T10:13:08;1.07;;;1.07;;
21438;SDS011;10880;50.302;18.736;2022-09-12T10:15:55;1.30;;;1.20;;
21438;SDS011;10880;50.302;18.736;2022-09-12T10:18:37;1.20;;;1.20;;
21438;SDS011;10880;50.302;18.736;2022-09-12T10:24:01;1.30;;;1.20;;
21438;SDS011;10880;50.302;18.736;2022-09-12T10:26:56;1.23;;;1.20;;
21438;SDS011;10880;50.302;18.736;2022-09-12T10:29:24;1.20;;;1.20;;
21438;SDS011;10880;50.302;18.736;2022-09-12T10:32:05;1.40;;;1.40;;
21438;SDS011;10880;50.302;18.736;2022-09-12T10:37:04;1.10;;;1.10;;
21438;SDS011;10880;50.302;18.736;2022-09-12T10:39:33;1.20;;;1.20;;
21438;SDS011;10880;50.302;18.736;2022-09-12T10:42:17;1.10;;;1.10;;
21438;SDS011;10880;50.302;18.736;2022-09-12T10:45:32;1.10;;;1.10;;
21438;SDS011;10880;50.302;18.736;2022-09-12T10:48:26;1.20;;;1.20;;
21438;SDS011;10880;50.302;18.736;2022-09-12T10:50:53;1.20;;;1.20;;
21438;SDS011;10880;50.302;18.736;2022-09-12T10:53:25;1.30;;;1.30;;
21438;SDS011;10880;50.302;18.736;2022-09-12T10:59:00;1.30;;;1.20;;
21438;SDS011;10880;50.302;18.736;2022-09-12T11:01:40;1.20;;;1.20;;
21438;SDS011;10880;50.302;18.736;2022-09-12T11:09:48;1.30;;;1.30;;
21438;SDS011;10880;50.302;18.736;2022-09-12T11:12:40;1.30;;;1.20;;
21438;SDS011;10880;50.302;18.736;2022-09-12T11:26:36;1.27;;;1.27;;
21438;SDS011;10880;50.302;18.736;2022-09-12T11:35:14;1.43;;;1.30;;
21438;SDS011;10880;50.302;18.736;2022-09-12T11:42:55;1.20;;;1.20;;
21438;SDS011;10880;50.302;18.736;2022-09-12T11:45:46;1.20;;;1.20;;
21438;SDS011;10880;50.302;18.736;2022-09-12T11:48:56;1.23;;;1.13;;
21438;SDS011;10880;50.302;18.736;2022-09-12T11:51:19;1.20;;;1.20;;
21438;SDS011;10880;50.302;18.736;2022-09-12T11:53:58;1.20;;;1.20;;
21438;SDS011;10880;50.302;18.736;2022-09-12T11:56:32;1.20;;;1.20;;
21438;SDS011;10880;50.302;18.736;2022-09-12T11:59:07;1.40;;;1.30;;
21438;SDS011;10880;50.302;18.736;2022-09-12T12:01:42;1.30;;;1.20;;
21438;SDS011;10880;50.302;18.736;2022-09-12T12:04:14;1.20;;;1.20;;
21438;SDS011;10880;50.302;18.736;2022-09-12T12:06:46;1.20;;;1.20;;
21438;SDS011;10880;50.302;18.736;2022-09-12T12:09:28;1.10;;;1.10;;
21438;SDS011;10880;50.302;18.736;2022-09-12T12:11:59;1.27;;;1.20;;
21438;SDS011;10880;50.302;18.736;2022-09-12T12:14:40;1.20;;;1.20;;
21438;SDS011;10880;50.302;18.736;2022-09-12T12:17:13;1.27;;;1.27;;
21438;SDS011;10880;50.302;18.736;2022-09-12T12:19:42;1.17;;;1.17;;
21438;SDS011;10880;50.302;18.736;2022-09-12T12:22:13;1.20;;;1.20;;
21438;SDS011;10880;50.302;18.736;2022-09-12T12:25:02;1.20;;;1.20;;
21438;SDS011;10880;50.302;18.736;2022-09-12T12:35:37;1.03;;;1.03;;
21438;SDS011;10880;50.302;18.736;2022-09-12T12:43:43;1.10;;;1.10;;
21438;SDS011;10880;50.302;18.736;2022-09-12T12:46:12;2.13;;;1.30;;
21438;SDS011;10880;50.302;18.736;2022-09-12T12:53:54;1.10;;;1.10;;
21438;SDS011;10880;50.302;18.736;2022-09-12T12:59:22;1.23;;;1.23;;
21438;SDS011;10880;50.302;18.736;2022-09-12T13:01:49;1.20;;;1.20;;
21438;SDS011;10880;50.302;18.736;2022-09-12T13:04:23;1.30;;;1.20;;
21438;SDS011;10880;50.302;18.736;2022-09-12T13:09:31;1.10;;;1.10;;
21438;SDS011;10880;50.302;18.736;2022-09-12T13:12:18;1.20;;;1.20;;
21438;SDS011;10880;50.302;18.736;2022-09-12T13:14:49;1.10;;;1.10;;
21438;SDS011;10880;50.302;18.736;2022-09-12T13:20:23;1.10;;;1.10;;
21438;SDS011;10880;50.302;18.736;2022-09-12T13:22:56;1.23;;;1.23;;
21438;SDS011;10880;50.302;18.736;2022-09-12T13:25:25;1.30;;;1.23;;
21438;SDS011;10880;50.302;18.736;2022-09-12T13:27:57;1.40;;;1.30;;
21438;SDS011;10880;50.302;18.736;2022-09-12T13:30:30;1.30;;;1.30;;
21438;SDS011;10880;50.302;18.736;2022-09-12T13:33:09;1.20;;;1.20;;
21438;SDS011;10880;50.302;18.736;2022-09-12T13:43:51;1.27;;;1.17;;
21438;SDS011;10880;50.302;18.736;2022-09-12T13:46:21;1.57;;;1.47;;
21438;SDS011;10880;50.302;18.736;2022-09-12T13:48:55;1.20;;;1.20;;
21438;SDS011;10880;50.302;18.736;2022-09-12T13:51:27;1.10;;;1.10;;
21438;SDS011;10880;50.302;18.736;2022-09-12T13:53:56;1.30;;;1.30;;
21438;SDS011;10880;50.302;18.736;2022-09-12T13:56:27;1.47;;;1.37;;
21438;SDS011;10880;50.302;18.736;2022-09-12T13:58:55;1.20;;;1.20;;
21438;SDS011;10880;50.302;18.736;2022-09-12T14:01:24;1.23;;;1.23;;
21438;SDS011;10880;50.302;18.736;2022-09-12T14:04:15;1.37;;;1.30;;
21438;SDS011;10880;50.302;18.736;2022-09-12T14:07:20;1.40;;;1.30;;
21438;SDS011;10880;50.302;18.736;2022-09-12T14:09:53;1.30;;;1.30;;
21438;SDS011;10880;50.302;18.736;2022-09-12T14:14:55;1.10;;;1.10;;
21438;SDS011;10880;50.302;18.736;2022-09-12T14:17:24;1.00;;;1.00;;
21438;SDS011;10880;50.302;18.736;2022-09-12T14:20:04;1.10;;;1.10;;
21438;SDS011;10880;50.302;18.736;2022-09-12T14:22:33;1.20;;;1.20;;
21438;SDS011;10880;50.302;18.736;2022-09-12T14:25:01;1.10;;;1.10;;
21438;SDS011;10880;50.302;18.736;2022-09-12T14:27:43;1.00;;;1.00;;
21438;SDS011;10880;50.302;18.736;2022-09-12T14:30:27;1.10;;;1.10;;
21438;SDS011;10880;50.302;18.736;2022-09-12T14:35:40;1.20;;;1.20;;
21438;SDS011;10880;50.302;18.736;2022-09-12T14:40:42;1.10;;;1.10;;
21438;SDS011;10880;50.302;18.736;2022-09-12T14:43:37;1.03;;;1.03;;
21438;SDS011;10880;50.302;18.736;2022-09-12T14:46:19;1.20;;;1.20;;
21438;SDS011;10880;50.302;18.736;2022-09-12T14:48:50;1.40;;;1.30;;
21438;SDS011;10880;50.302;18.736;2022-09-12T14:51:23;1.17;;;1.17;;
21438;SDS011;10880;50.302;18.736;2022-09-12T14:53:57;1.20;;;1.20;;
21438;SDS011;10880;50.302;18.736;2022-09-12T14:56:40;1.10;;;1.10;;
21438;SDS011;10880;50.302;18.736;2022-09-12T14:59:19;1.30;;;1.30;;
21438;SDS011;10880;50.302;18.736;2022-09-12T15:04:39;1.20;;;1.20;;
21438;SDS011;10880;50.302;18.736;2022-09-12T15:07:27;1.40;;;1.30;;
21438;SDS011;10880;50.302;18.736;2022-09-12T15:10:05;1.20;;;1.20;;
21438;SDS011;10880;50.302;18.736;2022-09-12T15:15:37;1.20;;;1.20;;
21438;SDS011;10880;50.302;18.736;2022-09-12T15:18:04;1.20;;;1.17;;
21438;SDS011;10880;50.302;18.736;2022-09-12T15:20:31;1.10;;;1.10;;
21438;SDS011;10880;50.302;18.736;2022-09-12T15:23:19;1.37;;;1.27;;
21438;SDS011;10880;50.302;18.736;2022-09-12T15:25:56;1.20;;;1.20;;
21438;SDS011;10880;50.302;18.736;2022-09-12T15:28:22;1.10;;;1.10;;
21438;SDS011;10880;50.302;18.736;2022-09-12T15:30:50;1.30;;;1.30;;
21438;SDS011;10880;50.302;18.736;2022-09-12T15:33:18;1.27;;;1.20;;
21438;SDS011;10880;50.302;18.736;2022-09-12T15:35:47;1.17;;;1.17;;
21438;SDS011;10880;50.302;18.736;2022-09-12T15:38:15;1.10;;;1.10;;
21438;SDS011;10880;50.302;18.736;2022-09-12T15:40:50;1.10;;;1.10;;
21438;SDS011;10880;50.302;18.736;2022-09-12T15:43:22;1.40;;;1.30;;
21438;SDS011;10880;50.302;18.736;2022-09-12T15:45:53;1.30;;;1.27;;
21438;SDS011;10880;50.302;18.736;2022-09-12T15:48:19;1.30;;;1.20;;
21438;SDS011;10880;50.302;18.736;2022-09-12T15:50:46;1.20;;;1.20;;
21438;SDS011;10880;50.302;18.736;2022-09-12T15:53:13;1.40;;;1.30;;
21438;SDS011;10880;50.302;18.736;2022-09-12T15:55:41;1.10;;;1.10;;
21438;SDS011;10880;50.302;18.736;2022-09-12T15:58:08;1.20;;;1.20;;
21438;SDS011;10880;50.302;18.736;2022-09-12T16:00:37;1.20;;;1.20;;
21438;SDS011;10880;50.302;18.736;2022-09-12T16:03:04;1.23;;;1.23;;
21438;SDS011;10880;50.302;18.736;2022-09-12T16:05:31;1.50;;;1.40;;
21438;SDS011;10880;50.302;18.736;2022-09-12T16:07:58;1.30;;;1.20;;
21438;SDS011;10880;50.302;18.736;2022-09-12T16:10:26;1.10;;;1.10;;
21438;SDS011;10880;50.302;18.736;2022-09-12T16:13:00;1.40;;;1.30;;
21438;SDS011;10880;50.302;18.736;2022-09-12T16:15:29;1.43;;;1.33;;
21438;SDS011;10880;50.302;18.736;2022-09-12T16:17:55;1.30;;;1.30;;
21438;SDS011;10880;50.302;18.736;2022-09-12T16:20:22;1.33;;;1.30;;
21438;SDS011;10880;50.302;18.736;2022-09-12T16:22:49;1.43;;;1.33;;
21438;SDS011;10880;50.302;18.736;2022-09-12T16:25:15;1.40;;;1.30;;
21438;SDS011;10880;50.302;18.736;2022-09-12T16:27:43;1.30;;;1.30;;
21438;SDS011;10880;50.302;18.736;2022-09-12T16:30:10;2.97;;;1.53;;
21438;SDS011;10880;50.302;18.736;2022-09-12T16:32:38;1.60;;;1.50;;
21438;SDS011;10880;50.302;18.736;2022-09-12T16:35:05;1.40;;;1.30;;
21438;SDS011;10880;50.302;18.736;2022-09-12T16:37:32;1.33;;;1.23;;
21438;SDS011;10880;50.302;18.736;2022-09-12T16:40:02;1.20;;;1.20;;
21438;SDS011;10880;50.302;18.736;2022-09-12T16:42:30;1.30;;;1.30;;
21438;SDS011;10880;50.302;18.736;2022-09-12T16:44:57;1.37;;;1.27;;
21438;SDS011;10880;50.302;18.736;2022-09-12T16:47:23;1.30;;;1.20;;
21438;SDS011;10880;50.302;18.736;2022-09-12T16:49:51;1.33;;;1.33;;
21438;SDS011;10880;50.302;18.736;2022-09-12T16:52:17;1.53;;;1.43;;
21438;SDS011;10880;50.302;18.736;2022-09-12T16:54:44;1.60;;;1.50;;
21438;SDS011;10880;50.302;18.736;2022-09-12T16:57:10;1.67;;;1.57;;
21438;SDS011;10880;50.302;18.736;2022-09-12T16:59:37;1.77;;;1.67;;
21438;SDS011;10880;50.302;18.736;2022-09-12T17:02:03;1.60;;;1.50;;
21438;SDS011;10880;50.302;18.736;2022-09-12T17:04:29;1.60;;;1.50;;
21438;SDS011;10880;50.302;18.736;2022-09-12T17:06:56;1.70;;;1.60;;
21438;SDS011;10880;50.302;18.736;2022-09-12T17:09:24;1.63;;;1.53;;
21438;SDS011;10880;50.302;18.736;2022-09-12T17:11:53;2.60;;;1.63;;
21438;SDS011;10880;50.302;18.736;2022-09-12T17:14:20;1.50;;;1.40;;
21438;SDS011;10880;50.302;18.736;2022-09-12T17:16:46;1.47;;;1.37;;
21438;SDS011;10880;50.302;18.736;2022-09-12T17:19:15;1.60;;;1.50;;
21438;SDS011;10880;50.302;18.736;2022-09-12T17:21:55;1.63;;;1.53;;
21438;SDS011;10880;50.302;18.736;2022-09-12T17:24:22;1.50;;;1.40;;
21438;SDS011;10880;50.302;18.736;2022-09-12T17:26:51;1.80;;;1.37;;
21438;SDS011;10880;50.302;18.736;2022-09-12T17:29:18;1.53;;;1.43;;
21438;SDS011;10880;50.302;18.736;2022-09-12T17:31:45;1.30;;;1.30;;
21438;SDS011;10880;50.302;18.736;2022-09-12T17:34:13;1.53;;;1.43;;
21438;SDS011;10880;50.302;18.736;2022-09-12T17:36:41;1.40;;;1.30;;
21438;SDS011;10880;50.302;18.736;2022-09-12T17:39:09;1.50;;;1.40;;
21438;SDS011;10880;50.302;18.736;2022-09-12T17:41:37;1.60;;;1.50;;
21438;SDS011;10880;50.302;18.736;2022-09-12T17:44:08;2.17;;;1.40;;
21438;SDS011;10880;50.302;18.736;2022-09-12T17:46:36;1.40;;;1.30;;
21438;SDS011;10880;50.302;18.736;2022-09-12T17:49:05;1.53;;;1.43;;
21438;SDS011;10880;50.302;18.736;2022-09-12T17:51:36;1.57;;;1.40;;
21438;SDS011;10880;50.302;18.736;2022-09-12T17:54:08;1.60;;;1.50;;
21438;SDS011;10880;50.302;18.736;2022-09-12T17:56:42;1.63;;;1.53;;